createdAt,value
2018-12-14T00:01:04.159Z,95193.13
2018-12-14T00:03:32.362Z,95195.36
2018-12-14T00:06:00.437Z,95190.01
2018-12-14T00:08:28.497Z,95192.03
2018-12-14T00:10:56.540Z,95197.77
2018-12-14T00:13:24.574Z,95192.97
2018-12-14T00:15:52.662Z,95190.91
2018-12-14T00:18:20.724Z,95190.08
2018-12-14T00:20:48.818Z,95194.50
2018-12-14T00:23:17.461Z,95190.12
2018-12-14T00:25:45.626Z,95189.63
2018-12-14T00:28:13.669Z,95185.17
2018-12-14T00:30:41.724Z,95190.99
2018-12-14T00:33:09.766Z,95185.20
2018-12-14T00:35:37.868Z,95183.14
2018-12-14T00:38:06.299Z,95183.66
2018-12-14T00:40:34.334Z,95181.60
2018-12-14T00:43:02.395Z,95188.91
2018-12-14T00:45:30.516Z,95186.05
2018-12-14T00:47:58.543Z,95186.35
2018-12-14T00:50:26.870Z,95189.45
2018-12-14T00:52:54.898Z,95183.48
2018-12-14T00:55:22.940Z,95181.95
2018-12-14T00:57:50.967Z,95181.15
2018-12-14T01:00:19.978Z,95175.27
2018-12-14T01:02:48.078Z,95182.51
2018-12-14T01:05:16.109Z,95175.77
2018-12-14T01:07:44.145Z,95187.56
2018-12-14T01:10:13.571Z,95183.86
2018-12-14T01:12:41.770Z,95186.25
2018-12-14T01:15:09.793Z,95187.07
2018-12-14T01:17:37.864Z,95188.03
2018-12-14T01:20:07.572Z,95189.66
2018-12-14T01:22:35.695Z,95190.74
2018-12-14T01:25:03.820Z,95191.72
2018-12-14T01:27:32.173Z,95200.23
2018-12-14T01:30:00.200Z,95201.00
2018-12-14T01:32:28.303Z,95207.36
2018-12-14T01:34:56.337Z,95201.14
2018-12-14T01:37:24.365Z,95205.02
2018-12-14T01:39:52.494Z,95197.40
2018-12-14T01:42:20.595Z,95195.75
2018-12-14T01:44:48.625Z,95192.56
2018-12-14T01:47:16.727Z,95196.80
2018-12-14T01:49:44.870Z,95196.42
2018-12-14T01:52:13.001Z,95194.38
2018-12-14T01:57:22.613Z,95188.23
2018-12-14T01:59:50.675Z,95188.28
2018-12-14T02:02:18.726Z,95187.26
2018-12-14T02:04:46.758Z,95186.78
2018-12-14T02:07:14.852Z,95185.63
2018-12-14T02:09:43.021Z,95187.33
2018-12-14T02:12:11.548Z,95184.11
2018-12-14T02:14:39.794Z,95181.78
2018-12-14T02:17:07.835Z,95180.28
2018-12-14T02:19:35.926Z,95179.61
2018-12-14T02:22:04.109Z,95181.80
2018-12-14T02:24:32.154Z,95182.31
2018-12-14T02:27:00.263Z,95179.01
2018-12-14T02:29:28.298Z,95179.77
2018-12-14T02:31:56.355Z,95175.80
2018-12-14T02:34:24.382Z,95174.46
2018-12-14T02:36:52.501Z,95169.06
2018-12-14T02:39:20.545Z,95172.31
2018-12-14T02:41:48.735Z,95165.51
2018-12-14T02:44:16.903Z,95167.05
2018-12-14T02:46:45.164Z,95162.58
2018-12-14T02:49:13.205Z,95161.64
2018-12-14T02:51:41.225Z,95170.44
2018-12-14T02:54:09.260Z,95165.89
2018-12-14T02:56:37.298Z,95164.76
2018-12-14T02:59:05.388Z,95170.47
2018-12-14T03:01:33.663Z,95159.27
2018-12-14T03:04:01.776Z,95166.71
2018-12-14T03:06:29.827Z,95168.53
2018-12-14T03:08:58.016Z,95164.47
2018-12-14T03:11:26.166Z,95164.55
2018-12-14T03:13:54.410Z,95152.73
2018-12-14T03:16:22.608Z,95153.09
2018-12-14T03:18:50.637Z,95157.69
2018-12-14T03:21:18.838Z,95155.48
2018-12-14T03:23:46.970Z,95157.97
2018-12-14T03:26:15.219Z,95160.98
2018-12-14T03:28:43.265Z,95163.99
2018-12-14T03:31:11.328Z,95161.95
2018-12-14T03:33:39.448Z,95155.19
2018-12-14T03:36:07.507Z,95163.02
2018-12-14T03:38:35.574Z,95161.66
2018-12-14T03:41:03.671Z,95163.05
2018-12-14T03:43:31.809Z,95156.08
2018-12-14T03:45:59.840Z,95156.65
2018-12-14T03:48:27.882Z,95156.97
2018-12-14T03:50:56.031Z,95161.80
2018-12-14T03:53:24.208Z,95162.87
2018-12-14T03:55:52.316Z,95157.11
2018-12-14T04:01:02.147Z,95159.94
2018-12-14T04:03:30.243Z,95163.44
2018-12-14T04:05:58.368Z,95156.14
2018-12-14T04:08:26.521Z,95162.16
2018-12-14T04:10:54.602Z,95152.83
2018-12-14T04:16:04.251Z,95160.53
2018-12-14T04:18:32.308Z,95158.73
2018-12-14T04:21:00.363Z,95157.42
2018-12-14T04:23:28.726Z,95159.60
2018-12-14T04:25:56.832Z,95168.25
2018-12-14T04:28:24.974Z,95155.37
2018-12-14T04:30:53.147Z,95147.13
2018-12-14T04:33:21.328Z,95150.05
2018-12-14T04:35:49.438Z,95158.36
2018-12-14T04:38:17.565Z,95150.67
2018-12-14T04:40:45.760Z,95153.02
2018-12-14T04:43:13.929Z,95149.86
2018-12-14T04:45:42.065Z,95155.75
2018-12-14T04:48:10.178Z,95158.62
2018-12-14T04:50:38.239Z,95161.03
2018-12-14T04:53:06.319Z,95162.44
2018-12-14T04:55:34.543Z,95155.99
2018-12-14T05:00:44.985Z,95167.91
2018-12-14T05:03:13.025Z,95161.11
2018-12-14T05:05:41.103Z,95162.47
2018-12-14T05:08:09.628Z,95165.61
2018-12-14T05:10:37.764Z,95154.94
2018-12-14T05:13:06.191Z,95162.75
2018-12-14T05:15:34.634Z,95164.11
2018-12-14T05:18:02.906Z,95158.92
2018-12-14T05:20:31.043Z,95167.05
2018-12-14T05:22:59.391Z,95158.35
2018-12-14T05:25:27.453Z,95156.98
2018-12-14T05:27:55.534Z,95152.31
2018-12-14T05:30:23.772Z,95152.28
2018-12-14T05:32:52.004Z,95156.80
2018-12-14T05:35:20.191Z,95161.03
2018-12-14T05:37:48.269Z,95159.19
2018-12-14T05:40:16.345Z,95167.95
2018-12-14T05:42:44.514Z,95171.04
2018-12-14T05:45:12.826Z,95166.36
2018-12-14T05:47:41.922Z,95174.77
2018-12-14T05:50:10.062Z,95179.83
2018-12-14T05:52:38.154Z,95167.63
2018-12-14T05:55:06.373Z,95174.78
2018-12-14T05:57:34.428Z,95183.92
2018-12-14T06:00:02.777Z,95180.13
2018-12-14T06:02:30.937Z,95177.70
2018-12-14T06:04:59.127Z,95183.73
2018-12-14T06:07:27.185Z,95186.18
2018-12-14T06:09:55.347Z,95189.91
2018-12-14T06:12:23.718Z,95194.05
2018-12-14T06:14:51.893Z,95190.98
2018-12-14T06:17:19.976Z,95204.97
2018-12-14T06:19:48.148Z,95193.02
2018-12-14T06:22:16.292Z,95193.50
2018-12-14T06:24:44.949Z,95190.95
2018-12-14T06:27:13.117Z,95199.06
2018-12-14T06:29:41.277Z,95191.02
2018-12-14T06:32:09.653Z,95193.41
2018-12-14T06:34:37.857Z,95195.73
2018-12-14T06:37:06.183Z,95194.69
2018-12-14T06:39:44.270Z,95203.06
2018-12-14T06:42:17.219Z,95196.56
2018-12-14T06:44:45.539Z,95202.02
2018-12-14T06:47:13.835Z,95200.88
2018-12-14T06:49:41.919Z,95206.66
2018-12-14T06:52:10.032Z,95204.30
2018-12-14T06:54:38.079Z,95201.86
2018-12-14T06:57:06.242Z,95206.77
2018-12-14T06:59:34.379Z,95212.25
2018-12-14T07:02:02.706Z,95218.11
2018-12-14T07:04:30.870Z,95225.67
2018-12-14T07:07:04.064Z,95227.31
2018-12-14T07:09:29.265Z,95235.27
2018-12-14T07:11:57.679Z,95226.76
2018-12-14T07:14:26.184Z,95233.52
2018-12-14T07:16:54.370Z,95231.41
2018-12-14T07:19:22.601Z,95238.55
2018-12-14T07:21:50.796Z,95236.68
2018-12-14T07:24:18.924Z,95236.97
2018-12-14T07:26:47.354Z,95240.80
2018-12-14T07:29:15.476Z,95241.03
2018-12-14T07:31:43.623Z,95244.67
2018-12-14T07:34:11.864Z,95246.56
2018-12-14T07:36:40.000Z,95247.67
2018-12-14T07:39:08.093Z,95253.95
2018-12-14T07:41:36.202Z,95256.55
2018-12-14T07:44:04.384Z,95250.98
2018-12-14T07:46:32.509Z,95256.70
2018-12-14T07:49:00.724Z,95261.45
2018-12-14T07:51:28.902Z,95265.29
2018-12-14T07:53:57.059Z,95260.73
2018-12-14T07:56:25.190Z,95270.56
2018-12-14T07:58:53.466Z,95269.67
2018-12-14T08:01:21.899Z,95267.11
2018-12-14T08:03:50.015Z,95278.04
2018-12-14T08:06:18.170Z,95273.80
2018-12-14T08:08:46.283Z,95286.73
2018-12-14T08:11:14.370Z,95290.80
2018-12-14T08:13:42.578Z,95286.50
2018-12-14T08:16:10.728Z,95289.19
2018-12-14T08:18:38.926Z,95298.50
2018-12-14T08:21:07.429Z,95298.80
2018-12-14T08:23:35.565Z,95299.64
2018-12-14T08:26:03.710Z,95295.32
2018-12-14T08:28:31.778Z,95287.58
2018-12-14T08:30:59.829Z,95298.55
2018-12-14T08:33:27.952Z,95301.97
2018-12-14T08:35:56.158Z,95297.50
2018-12-14T08:38:24.366Z,95290.63
2018-12-14T08:40:52.472Z,95299.03
2018-12-14T08:43:20.524Z,95310.50
2018-12-14T08:45:48.571Z,95307.02
2018-12-14T08:48:16.750Z,95312.77
2018-12-14T08:50:44.892Z,95314.34
2018-12-14T08:53:13.023Z,95320.01
2018-12-14T08:55:41.115Z,95323.13
2018-12-14T08:58:09.197Z,95320.41
2018-12-14T09:00:37.303Z,95335.67
2018-12-14T09:03:05.592Z,95334.61
2018-12-14T09:05:33.645Z,95341.02
2018-12-14T09:08:01.745Z,95349.20
2018-12-14T09:10:29.822Z,95344.08
2018-12-14T09:12:57.887Z,95354.11
2018-12-14T09:15:25.937Z,95350.25
2018-12-14T09:17:53.986Z,95346.13
2018-12-14T09:20:22.179Z,95342.59
2018-12-14T09:22:50.291Z,95340.59
2018-12-14T09:25:18.426Z,95342.23
2018-12-14T09:27:46.580Z,95349.41
2018-12-14T09:30:14.674Z,95352.09
2018-12-14T09:32:42.734Z,95345.84
2018-12-14T09:35:10.787Z,95346.81
2018-12-14T09:37:38.894Z,95342.59
2018-12-14T09:40:07.002Z,95345.59
2018-12-14T09:42:35.062Z,95344.58
2018-12-14T09:45:03.225Z,95346.23
2018-12-14T09:47:31.337Z,95345.72
2018-12-14T09:50:00.503Z,95348.23
2018-12-14T09:52:28.594Z,95343.83
2018-12-14T09:54:56.617Z,95351.34
2018-12-14T09:57:24.771Z,95348.02
2018-12-14T09:59:52.850Z,95346.02
2018-12-14T10:02:21.940Z,95345.80
2018-12-14T10:04:49.967Z,95337.27
2018-12-14T10:07:18.085Z,95339.02
2018-12-14T10:09:46.145Z,95340.16
2018-12-14T10:12:14.311Z,95342.60
2018-12-14T10:14:42.406Z,95347.23
2018-12-14T10:17:10.450Z,95344.91
2018-12-14T10:19:38.605Z,95343.63
2018-12-14T10:22:06.796Z,95345.57
2018-12-14T10:24:34.959Z,95342.34
2018-12-14T10:27:03.137Z,95341.89
2018-12-14T10:29:31.341Z,95342.02
2018-12-14T10:31:59.521Z,95340.29
2018-12-14T10:34:27.683Z,95348.41
2018-12-14T10:36:55.742Z,95333.94
2018-12-14T10:39:23.962Z,95337.50
2018-12-14T10:41:52.826Z,95334.41
2018-12-14T10:44:20.941Z,95334.40
2018-12-14T10:46:49.139Z,95332.86
2018-12-14T10:49:17.265Z,95333.44
2018-12-14T10:51:45.614Z,95332.82
2018-12-14T10:54:13.688Z,95321.08
2018-12-14T10:56:41.882Z,95332.16
2018-12-14T10:59:10.016Z,95324.60
2018-12-14T11:01:43.460Z,95315.39
2018-12-14T11:04:11.517Z,95312.66
2018-12-14T11:06:40.076Z,95316.94
2018-12-14T11:09:08.269Z,95311.14
2018-12-14T11:11:36.423Z,95309.23
2018-12-14T11:14:04.542Z,95308.31
2018-12-14T11:16:32.723Z,95310.58
2018-12-14T11:19:00.963Z,95309.84
2018-12-14T11:21:29.073Z,95307.41
2018-12-14T11:23:57.213Z,95304.01
2018-12-14T11:26:25.315Z,95309.64
2018-12-14T11:28:53.456Z,95309.09
2018-12-14T11:31:21.634Z,95310.33
2018-12-14T11:33:49.746Z,95315.88
2018-12-14T11:36:17.818Z,95317.72
2018-12-14T11:38:45.879Z,95317.70
2018-12-14T11:41:18.469Z,95311.54
2018-12-14T11:43:44.142Z,95320.08
2018-12-14T11:46:12.349Z,95317.01
2018-12-14T11:48:40.453Z,95318.55
2018-12-14T11:51:10.067Z,95315.97
2018-12-14T11:53:38.178Z,95315.77
2018-12-14T11:56:06.365Z,95309.62
2018-12-14T11:58:34.475Z,95309.91
2018-12-14T12:01:02.651Z,95311.97
2018-12-14T12:03:30.812Z,95302.45
2018-12-14T12:05:58.977Z,95313.26
2018-12-14T12:08:27.068Z,95308.88
2018-12-14T12:10:55.175Z,95305.29
2018-12-14T12:13:23.242Z,95311.95
2018-12-14T12:15:51.314Z,95305.23
2018-12-14T12:18:19.543Z,95301.82
2018-12-14T12:20:47.630Z,95293.68
2018-12-14T12:23:15.804Z,95298.16
2018-12-14T12:25:43.983Z,95301.19
2018-12-14T12:28:12.100Z,95297.34
2018-12-14T12:30:40.155Z,95295.63
2018-12-14T12:33:08.274Z,95300.25
2018-12-14T12:35:36.336Z,95292.05
2018-12-14T12:38:04.450Z,95299.11
2018-12-14T12:40:32.517Z,95303.81
2018-12-14T12:43:00.677Z,95298.41
2018-12-14T12:45:28.972Z,95308.25
2018-12-14T12:47:57.133Z,95299.45
2018-12-14T12:50:25.212Z,95303.88
2018-12-14T12:52:53.503Z,95299.72
2018-12-14T12:55:22.794Z,95299.27
2018-12-14T12:57:50.874Z,95305.75
2018-12-14T13:00:18.982Z,95308.75
2018-12-14T13:02:47.027Z,95305.91
2018-12-14T13:05:15.170Z,95312.30
2018-12-14T13:07:43.246Z,95317.49
2018-12-14T13:10:11.318Z,95311.55
2018-12-14T13:12:39.380Z,95316.77
2018-12-14T13:15:07.841Z,95322.13
2018-12-14T13:17:35.972Z,95326.27
2018-12-14T13:20:04.074Z,95324.35
2018-12-14T13:22:32.133Z,95313.28
2018-12-14T13:25:00.195Z,95310.49
2018-12-14T13:27:28.316Z,95319.13
2018-12-14T13:29:56.382Z,95315.59
2018-12-14T13:32:24.434Z,95313.47
2018-12-14T13:34:52.523Z,95314.53
2018-12-14T13:37:20.642Z,95315.41
2018-12-14T13:39:48.733Z,95326.57
2018-12-14T13:42:16.982Z,95316.34
2018-12-14T13:44:46.712Z,95321.82
2018-12-14T13:47:15.153Z,95329.98
2018-12-14T13:49:43.509Z,95326.34
2018-12-14T13:52:11.702Z,95326.11
2018-12-14T13:54:39.833Z,95326.93
2018-12-14T13:57:07.947Z,95328.44
2018-12-14T13:59:36.025Z,95335.24
2018-12-14T14:02:04.089Z,95329.72
2018-12-14T14:04:32.151Z,95339.67
2018-12-14T14:07:00.209Z,95347.61
2018-12-14T14:09:28.608Z,95349.55
2018-12-14T14:11:56.705Z,95354.04
2018-12-14T14:14:24.758Z,95358.60
2018-12-14T14:16:53.167Z,95369.86
2018-12-14T14:19:21.864Z,95365.20
2018-12-14T14:21:50.000Z,95369.00
2018-12-14T14:24:18.031Z,95362.81
2018-12-14T14:26:46.148Z,95372.16
2018-12-14T14:29:14.191Z,95376.59
2018-12-14T14:31:42.542Z,95377.72
2018-12-14T14:34:10.576Z,95373.13
2018-12-14T14:36:38.614Z,95380.62
2018-12-14T14:39:07.256Z,95387.77
2018-12-14T14:41:35.365Z,95392.38
2018-12-14T14:44:03.426Z,95396.13
2018-12-14T14:46:31.626Z,95394.72
2018-12-14T14:48:59.737Z,95406.65
2018-12-14T14:51:28.077Z,95408.03
2018-12-14T14:53:56.134Z,95402.38
2018-12-14T14:56:24.281Z,95408.66
2018-12-14T14:58:52.768Z,95408.80
2018-12-14T15:01:20.796Z,95414.42
2018-12-14T15:03:48.939Z,95419.37
2018-12-14T15:06:17.200Z,95417.47
2018-12-14T15:08:45.319Z,95414.14
2018-12-14T15:11:13.365Z,95415.57
2018-12-14T15:13:41.410Z,95420.77
2018-12-14T15:16:09.524Z,95419.98
2018-12-14T15:18:37.566Z,95427.91
2018-12-14T15:21:05.590Z,95423.08
2018-12-14T15:23:33.707Z,95426.63
2018-12-14T15:26:03.150Z,95426.47
2018-12-14T15:28:31.271Z,95427.44
2018-12-14T15:30:59.386Z,95434.43
2018-12-14T15:33:27.486Z,95424.30
2018-12-14T15:35:56.525Z,95437.80
2018-12-14T15:38:24.587Z,95430.24
2018-12-14T15:40:52.712Z,95438.58
2018-12-14T15:43:21.523Z,95440.80
2018-12-14T15:45:50.166Z,95440.93
2018-12-14T15:48:18.762Z,95435.28
2018-12-14T15:50:47.314Z,95443.20
2018-12-14T15:53:15.968Z,95442.50
2018-12-14T15:55:44.361Z,95447.12
2018-12-14T15:58:13.284Z,95449.34
2018-12-14T16:00:41.782Z,95448.83
2018-12-14T16:03:10.408Z,95452.02
2018-12-14T16:05:39.167Z,95458.08
2018-12-14T16:08:07.562Z,95461.67
2018-12-14T16:10:35.691Z,95453.42
2018-12-14T16:13:03.885Z,95458.54
2018-12-14T16:15:32.081Z,95463.02
2018-12-14T16:18:01.491Z,95466.37
2018-12-14T16:20:29.603Z,95466.75
2018-12-14T16:22:57.750Z,95476.25
2018-12-14T16:25:25.966Z,95456.57
2018-12-14T16:27:54.134Z,95454.10
2018-12-14T16:30:22.236Z,95448.67
2018-12-14T16:32:50.382Z,95443.47
2018-12-14T16:35:18.472Z,95447.92
2018-12-14T16:37:46.614Z,95448.45
2018-12-14T16:40:14.744Z,95450.25
2018-12-14T16:42:42.827Z,95446.73
2018-12-14T16:45:11.354Z,95443.30
2018-12-14T16:47:39.437Z,95450.44
2018-12-14T16:50:07.613Z,95446.95
2018-12-14T16:52:35.754Z,95447.30
2018-12-14T16:55:03.966Z,95448.83
2018-12-14T16:57:32.150Z,95445.76
2018-12-14T17:00:00.370Z,95443.16
2018-12-14T17:02:28.590Z,95448.79
2018-12-14T17:04:56.628Z,95441.84
2018-12-14T17:07:24.981Z,95443.91
2018-12-14T17:09:53.046Z,95452.06
2018-12-14T17:12:21.154Z,95456.11
2018-12-14T17:14:50.290Z,95456.27
2018-12-14T17:17:18.325Z,95458.79
2018-12-14T17:19:46.419Z,95460.41
2018-12-14T17:22:14.484Z,95461.13
2018-12-14T17:24:42.604Z,95463.59
2018-12-14T17:27:10.821Z,95468.02
2018-12-14T17:29:38.913Z,95456.06
2018-12-14T17:32:06.965Z,95469.14
2018-12-14T17:34:35.758Z,95469.46
2018-12-14T17:37:03.932Z,95469.78
2018-12-14T17:39:32.713Z,95468.70
2018-12-14T17:42:00.895Z,95466.38
2018-12-14T17:44:29.018Z,95465.37
2018-12-14T17:46:57.165Z,95468.44
2018-12-14T17:49:25.207Z,95468.04
2018-12-14T17:51:53.418Z,95468.98
2018-12-14T17:54:21.678Z,95477.44
2018-12-14T17:56:49.756Z,95476.72
2018-12-14T17:59:17.929Z,95469.92
2018-12-14T18:01:46.066Z,95463.69
2018-12-14T18:04:14.151Z,95471.88
2018-12-14T18:06:42.259Z,95473.90
2018-12-14T18:09:10.450Z,95473.55
2018-12-14T18:11:38.501Z,95477.52
2018-12-14T18:14:06.789Z,95482.84
2018-12-14T18:16:35.115Z,95478.75
2018-12-14T18:19:03.245Z,95477.14
2018-12-14T18:21:31.587Z,95481.19
2018-12-14T18:23:59.713Z,95479.38
2018-12-14T18:26:27.778Z,95485.55
2018-12-14T18:28:55.879Z,95485.39
2018-12-14T18:31:23.941Z,95486.66
2018-12-14T18:33:52.037Z,95487.59
2018-12-14T18:36:20.080Z,95490.98
2018-12-14T18:38:48.181Z,95490.19
2018-12-14T18:41:16.317Z,95495.20
2018-12-14T18:43:44.530Z,95499.50
2018-12-14T18:46:12.642Z,95499.91
2018-12-14T18:48:40.951Z,95510.17
2018-12-14T18:51:09.148Z,95510.52
2018-12-14T18:53:37.276Z,95520.53
2018-12-14T18:56:05.378Z,95526.23
2018-12-14T18:58:33.436Z,95519.42
2018-12-14T19:01:01.782Z,95524.02
2018-12-14T19:03:31.308Z,95523.89
2018-12-14T19:05:59.346Z,95527.95
2018-12-14T19:08:27.406Z,95531.15
2018-12-14T19:10:55.519Z,95542.13
2018-12-14T19:13:23.584Z,95543.66
2018-12-14T19:15:52.184Z,95550.33
2018-12-14T19:18:20.288Z,95551.17
2018-12-14T19:20:48.316Z,95554.06
2018-12-14T19:23:19.528Z,95555.11
2018-12-14T19:25:46.503Z,95565.15
2018-12-14T19:28:14.538Z,95559.56
2018-12-14T19:30:42.695Z,95559.70
2018-12-14T19:33:10.858Z,95568.00
2018-12-14T19:35:38.913Z,95567.30
2018-12-14T19:38:07.016Z,95566.59
2018-12-14T19:40:35.060Z,95577.06
2018-12-14T19:43:04.643Z,95571.13
2018-12-14T19:45:32.806Z,95573.98
2018-12-14T19:48:00.855Z,95579.80
2018-12-14T19:50:28.981Z,95580.61
2018-12-14T19:52:57.019Z,95582.02
2018-12-14T19:55:25.201Z,95583.41
2018-12-14T19:57:54.432Z,95586.77
2018-12-14T20:00:22.669Z,95589.78
2018-12-14T20:02:50.790Z,95582.50
2018-12-14T20:05:19.130Z,95585.27
2018-12-14T20:07:47.177Z,95590.75
2018-12-14T20:10:15.289Z,95580.27
2018-12-14T20:12:43.331Z,95591.30
2018-12-14T20:15:11.433Z,95590.22
2018-12-14T20:17:39.605Z,95592.09
2018-12-14T20:20:08.133Z,95599.41
2018-12-14T20:22:36.187Z,95593.86
2018-12-14T20:25:04.632Z,95602.22
2018-12-14T20:27:32.754Z,95591.41
2018-12-14T20:30:01.805Z,95592.09
2018-12-14T20:35:11.796Z,95596.88
2018-12-14T20:37:39.947Z,95592.83
2018-12-14T20:40:08.151Z,95604.70
2018-12-14T20:42:36.306Z,95604.23
2018-12-14T20:45:04.986Z,95594.52
2018-12-14T20:47:33.146Z,95595.59
2018-12-14T20:50:01.283Z,95592.70
2018-12-14T20:52:29.553Z,95596.84
2018-12-14T20:54:57.688Z,95591.95
2018-12-14T20:57:25.779Z,95583.11
2018-12-14T20:59:53.858Z,95592.85
2018-12-14T21:02:21.964Z,95592.28
2018-12-14T21:04:50.015Z,95588.80
2018-12-14T21:07:18.070Z,95594.91
2018-12-14T21:09:46.139Z,95593.38
2018-12-14T21:12:14.231Z,95581.84
2018-12-14T21:14:42.284Z,95584.47
2018-12-14T21:17:10.545Z,95580.10
2018-12-14T21:19:38.706Z,95578.48
2018-12-14T21:22:11.734Z,95584.29
2018-12-14T21:24:39.890Z,95588.16
2018-12-14T21:27:08.030Z,95589.35
2018-12-14T21:29:36.087Z,95579.87
2018-12-14T21:32:04.243Z,95588.50
2018-12-14T21:34:32.286Z,95582.97
2018-12-14T21:37:00.359Z,95579.89
2018-12-14T21:39:28.397Z,95583.61
2018-12-14T21:41:56.577Z,95577.30
2018-12-14T21:44:24.678Z,95576.84
2018-12-14T21:46:52.793Z,95580.00
2018-12-14T21:49:20.906Z,95572.74
2018-12-14T21:51:49.486Z,95572.50
2018-12-14T21:54:17.553Z,95567.68
2018-12-14T21:56:45.624Z,95563.80
2018-12-14T21:59:13.686Z,95554.31
2018-12-14T22:01:41.802Z,95563.51
2018-12-14T22:04:09.921Z,95557.26
2018-12-14T22:06:38.313Z,95555.91
2018-12-14T22:09:09.077Z,95558.81
2018-12-14T22:11:37.316Z,95556.34
2018-12-14T22:14:05.507Z,95556.03
2018-12-14T22:16:39.135Z,95563.48
2018-12-14T22:19:03.740Z,95574.90
2018-12-14T22:21:31.899Z,95568.70
2018-12-14T22:24:00.108Z,95571.02
2018-12-14T22:26:28.186Z,95574.95
2018-12-14T22:28:56.251Z,95565.53
2018-12-14T22:31:24.326Z,95566.85
2018-12-14T22:33:52.383Z,95560.66
2018-12-14T22:36:20.481Z,95571.80
2018-12-14T22:38:48.644Z,95564.18
2018-12-14T22:41:17.706Z,95561.23
2018-12-14T22:43:45.838Z,95567.52
2018-12-14T22:46:13.977Z,95562.94
2018-12-14T22:48:42.017Z,95560.39
2018-12-14T22:51:10.335Z,95563.78
2018-12-14T22:53:38.378Z,95558.17
2018-12-14T22:56:06.540Z,95558.09
2018-12-14T22:58:34.650Z,95556.59
2018-12-14T23:01:02.867Z,95560.02
2018-12-14T23:03:30.935Z,95563.58
2018-12-14T23:05:59.042Z,95560.69
2018-12-14T23:08:27.337Z,95562.69
2018-12-14T23:10:55.460Z,95558.71
2018-12-14T23:13:23.657Z,95553.29
2018-12-14T23:15:51.849Z,95563.55
2018-12-14T23:18:20.017Z,95562.45
2018-12-14T23:20:48.113Z,95554.47
2018-12-14T23:25:57.813Z,95557.05
2018-12-14T23:28:25.886Z,95561.52
2018-12-14T23:30:53.985Z,95557.70
2018-12-14T23:33:22.311Z,95562.57
2018-12-14T23:35:50.374Z,95554.05
2018-12-14T23:38:18.499Z,95555.36
2018-12-14T23:40:46.715Z,95553.56
2018-12-14T23:43:14.753Z,95557.63
2018-12-14T23:45:42.927Z,95561.30
2018-12-14T23:48:11.092Z,95564.03
2018-12-14T23:50:39.198Z,95563.83
2018-12-14T23:53:07.373Z,95567.99
2018-12-14T23:55:35.572Z,95558.34
2018-12-14T23:58:03.651Z,95566.66
